Nicole Leigh Reinauer — WCZ5696 — position and weather

sailwx.info

Track history (hours):
 
Tides and Currents Weather Stations Pressure Air Temp Water Temp Dewpoint Dewpoint Depression Visibility Wind Speed Wind Dir Waves Ship Positions

Nicole Leigh Reinauer

Owner: H A REINAUER INC, STATEN ISLAND, NY. More information available from US FCC via Universal Licensing System and Coast Guard Vessel Documentation Center.

Last reported at 2016-Feb-05 23:14 UTC. Time now 2016-Feb-06 00:03 UTC.
Position N 41°12' W 072°53'.

Length 167 m; draft 8.5 m.

Type: Tanker. MMSI: 366774330.

Date/timePositionNaut miles runAvg speedWind from/ knotsBaromVisibWave heightAir tempDewpointWater temp
2016-Feb-05 23:14N 41°12' W 072°53'10 9.9
2016-Feb-05 22:11N 41°06' W 073°05'710.9
2016-Feb-05 21:33N 41°03' W 073°13'1111.3
2016-Feb-05 20:33N 40°59' W 073°27'1211.8
2016-Feb-05 19:33N 40°54' W 073°41'1110.0
2016-Feb-05 18:29N 40°48' W 073°53'8 8.5
2016-Feb-05 17:33N 40°42' W 074°00'9 9.0
2016-Feb-05 16:34N 40°39' W 074°11'3 0.3
2016-Feb-05 06:28N 40°36' W 074°12'5 5.5
2016-Feb-05 05:33N 40°39' W 074°07'0 0.0
2016-Feb-05 04:33N 40°39' W 074°07'0 0.0
2016-Feb-05 03:34N 40°39' W 074°07'0 0.0
2016-Feb-05 02:34N 40°39' W 074°07'0 0.0
2016-Feb-05 01:33N 40°39' W 074°07'0 0.0
2016-Feb-05 00:33N 40°39' W 074°07'1 1.0
2016-Feb-04 23:34N 40°38' W 074°08'0 0.0
2016-Feb-04 22:31N 40°38' W 074°08'0 0.0
2016-Feb-04 21:33N 40°38' W 074°08'0 0.0
2016-Feb-04 20:33N 40°38' W 074°08'0 0.0
2016-Feb-04 19:34N 40°38' W 074°08'0 0.0
2016-Feb-04 18:34N 40°38' W 074°08'0 0.0
2016-Feb-04 17:34N 40°38' W 074°08'0 0.0
2016-Feb-04 16:33N 40°38' W 074°08'0 0.0
2016-Feb-04 15:33N 40°38' W 074°08'0 0.0
2016-Feb-04 14:34N 40°38' W 074°08'0 0.0
2016-Feb-04 13:34N 40°38' W 074°08'0 0.0
2016-Feb-04 12:34N 40°38' W 074°08'5 1.9
2016-Feb-04 10:07N 40°35' W 074°12'4 7.4
2016-Feb-04 09:34N 40°39' W 074°09'5 4.7
2016-Feb-04 08:33N 40°39' W 074°03'0 0.1
2016-Feb-04 07:33N 40°39' W 074°03'0 0.0
2016-Feb-04 06:33N 40°39' W 074°03'0 0.2
2016-Feb-04 05:33N 40°38' W 074°03'0 0.0
2016-Feb-04 04:33N 40°38' W 074°03'0 0.0
2016-Feb-04 03:34N 40°38' W 074°03'0 0.1
2016-Feb-04 02:34N 40°38' W 074°03'0 0.2
2016-Feb-04 01:34N 40°39' W 074°03'0 0.2
2016-Feb-04 00:33N 40°38' W 074°03'2 2.1
2016-Feb-03 23:34N 40°40' W 074°02'1010.0
2016-Feb-03 22:31N 40°48' W 073°53'12 9.9
2016-Feb-03 21:20N 40°55' W 073°40'911.4
2016-Feb-03 20:33N 40°59' W 073°29'1111.2
2016-Feb-03 19:33N 41°03' W 073°16'1110.9
2016-Feb-03 18:33N 41°07' W 073°02'9 0.4
2016-Feb-02 22:33N 41°12' W 072°53'0 0.5
2016-Feb-02 21:33N 41°12' W 072°52'0 0.0
2016-Feb-02 20:33N 41°12' W 072°52'0 0.1
2016-Feb-02 19:33N 41°12' W 072°52'0 0.0
2016-Feb-02 12:27N 41°12' W 072°52'0 0.1
2016-Feb-02 11:15N 41°12' W 072°52'0 0.2
2016-Feb-02 10:33N 41°12' W 072°52'0 0.0
2016-Feb-02 09:27N 41°12' W 072°52'0 0.0
2016-Feb-02 08:27N 41°12' W 072°52'0 0.0
2016-Feb-02 07:33N 41°12' W 072°52'0 0.0
2016-Feb-02 06:33N 41°12' W 072°52'0 0.1
2016-Feb-02 05:33N 41°12' W 072°52'0 0.1
2016-Feb-02 03:33N 41°12' W 072°52'0 0.0
2016-Feb-02 02:33N 41°12' W 072°52'0 0.1
2016-Feb-02 01:21N 41°12' W 072°52'18 8.9
2016-Feb-01 23:18N 41°03' W 073°13'911.4
2016-Feb-01 22:33N 41°00' W 073°24'2410.7
2016-Feb-01 20:21N 40°48' W 073°51'7 9.1
2016-Feb-01 19:34N 40°44' W 073°58'7 6.6
2016-Feb-01 18:34N 40°38' W 074°04'0 0.2
2016-Feb-01 17:34N 40°38' W 074°04'4 4.0
2016-Feb-01 16:33N 40°39' W 074°09'5 4.2
2016-Feb-01 15:29N 40°35' W 074°13'0 0.0
2016-Jan-31 19:18N 40°35' W 074°13'1 0.1
2016-Jan-31 07:26N 40°36' W 074°12'5 5.7
2016-Jan-31 06:33N 40°39' W 074°07'4 4.1
2016-Jan-31 05:32N 40°40' W 074°02'0 0.0
2016-Jan-31 04:32N 40°40' W 074°02'0 0.0
2016-Jan-31 03:32N 40°40' W 074°02'0 0.1
2016-Jan-31 02:32N 40°40' W 074°02'0 0.2
2016-Jan-31 01:32N 40°40' W 074°02'0 0.1
2016-Jan-31 00:32N 40°40' W 074°02'0 0.0
2016-Jan-30 23:32N 40°40' W 074°02'0 0.0
2016-Jan-30 22:32N 40°40' W 074°02'0 0.0
2016-Jan-30 21:32N 40°40' W 074°02'0 0.2
2016-Jan-30 20:32N 40°40' W 074°02'0 0.1
2016-Jan-30 19:32N 40°40' W 074°02'0 0.0
2016-Jan-30 18:32N 40°40' W 074°02'0 0.0
2016-Jan-30 17:32N 40°40' W 074°02'0 0.0
2016-Jan-30 16:32N 40°40' W 074°02'0 0.0
2016-Jan-30 15:32N 40°40' W 074°02'0 0.1
2016-Jan-30 14:32N 40°40' W 074°02'0 0.1
2016-Jan-30 13:32N 40°40' W 074°02'0 0.0
2016-Jan-30 12:32N 40°40' W 074°02'0 0.0
2016-Jan-30 11:32N 40°40' W 074°02'0 0.0
2016-Jan-30 10:32N 40°40' W 074°02'0 0.0
2016-Jan-30 09:32N 40°40' W 074°02'0 0.1
2016-Jan-30 08:34N 40°40' W 074°02'8 7.9
2016-Jan-30 07:33N 40°32' W 074°01'10 9.6
2016-Jan-30 06:33N 40°29' W 073°49'128 9.7
2016-Jan-29 17:28N 41°30' W 071°21'1011.2
2016-Jan-29 16:33N 41°40' W 071°19'8 7.9
2016-Jan-29 15:29N 41°48' W 071°24'0 0.0
2016-Jan-29 14:29N 41°48' W 071°24'0 0.0
2016-Jan-29 13:11N 41°48' W 071°24'0 0.0
2016-Jan-29 12:23N 41°48' W 071°24'0 0.0
2016-Jan-29 11:29N 41°48' W 071°24'0 0.0
2016-Jan-29 10:29N 41°48' W 071°24'0 0.0
2016-Jan-29 09:29N 41°48' W 071°24'0 0.0
2016-Jan-29 08:29N 41°48' W 071°24'0 0.0
2016-Jan-29 07:29N 41°48' W 071°24'0 0.0
2016-Jan-29 06:29N 41°48' W 071°24'0 0.0
2016-Jan-29 05:23N 41°48' W 071°24'0 0.0
2016-Jan-29 04:29N 41°48' W 071°24'0 0.0
2016-Jan-29 03:29N 41°48' W 071°24'0 0.0
2016-Jan-29 02:29N 41°48' W 071°24'0 0.0
2016-Jan-29 01:29N 41°48' W 071°24'0 0.0
2016-Jan-29 00:23N 41°48' W 071°24'0 0.0
2016-Jan-28 23:29N 41°48' W 071°24'0 0.0
2016-Jan-28 22:29N 41°48' W 071°24'0 0.0
2016-Jan-28 21:23N 41°48' W 071°24'4 4.7
2016-Jan-28 20:33N 41°44' W 071°22'8 8.3
2016-Jan-28 19:33N 41°37' W 071°18'1 0.5
2016-Jan-28 18:30N 41°36' W 071°18'0 0.1
2016-Jan-28 14:32N 41°36' W 071°18'0 0.0
2016-Jan-28 11:32N 41°36' W 071°18'0 0.1
2016-Jan-28 10:08N 41°36' W 071°18'0 0.2
2016-Jan-28 09:32N 41°36' W 071°18'0 0.0
2016-Jan-28 08:32N 41°36' W 071°18'0 0.0
2016-Jan-28 07:27N 41°36' W 071°18'0 0.0
2016-Jan-28 06:32N 41°36' W 071°18'0 0.0
2016-Jan-28 05:32N 41°36' W 071°18'0 0.0
2016-Jan-28 04:32N 41°36' W 071°18'0 0.1
2016-Jan-28 03:32N 41°36' W 071°18'0 0.3
2016-Jan-28 02:27N 41°36' W 071°18'7 7.5
2016-Jan-28 01:33N 41°43' W 071°20'5 4.5
2016-Jan-28 00:33N 41°39' W 071°18'1110.9
2016-Jan-27 23:33N 41°28' W 071°22'3510.8
2016-Jan-27 20:20N 41°14' W 072°05'1013.1
2016-Jan-27 19:33N 41°12' W 072°17'1211.8
2016-Jan-27 18:33N 41°09' W 072°33'1111.2
2016-Jan-27 17:33N 41°12' W 072°47'14 7.0
2016-Jan-27 15:31N 41°06' W 073°04'1010.7
2016-Jan-27 14:33N 41°02' W 073°17'1111.2
2016-Jan-27 13:33N 40°58' W 073°31'1211.4
2016-Jan-27 12:32N 40°52' W 073°44'10 9.8
2016-Jan-27 11:33N 40°47' W 073°55'7 7.1
2016-Jan-27 10:33N 40°41' W 074°00'6 5.6
2016-Jan-27 09:33N 40°41' W 074°08'1 0.7
2016-Jan-27 08:31N 40°42' W 074°08'0 0.0
2016-Jan-27 07:31N 40°42' W 074°08'0 0.0
2016-Jan-27 06:28N 40°42' W 074°08'0 0.0
2016-Jan-27 05:31N 40°42' W 074°08'0 0.0
2016-Jan-27 04:25N 40°42' W 074°08'0 0.0
2016-Jan-27 03:25N 40°42' W 074°08'0 0.0
2016-Jan-27 02:19N 40°42' W 074°08'0 0.0
2016-Jan-27 01:31N 40°42' W 074°08'0 0.0
2016-Jan-27 00:31N 40°42' W 074°08'0 0.0
2016-Jan-26 23:25N 40°42' W 074°08'  
Track history (hours):
 
Tides and Currents Weather Stations Pressure Air Temp Water Temp Dewpoint Dewpoint Depression Visibility Wind Speed Wind Dir Waves Ship Positions

Nicole Leigh Reinauer

Owner: H A REINAUER INC, STATEN ISLAND, NY. More information available from US FCC via Universal Licensing System and Coast Guard Vessel Documentation Center.

Last reported at 2016-Feb-05 23:14 UTC. Time now 2016-Feb-06 00:03 UTC.
Position N 41°12' W 072°53'.

Length 167 m; draft 8.5 m.

Type: Tanker. MMSI: 366774330.

Date/timePositionNaut miles runAvg speedWind from/ knotsBaromVisibWave heightAir tempDewpointWater temp
2016-Feb-05 23:14N 41°12' W 072°53'10 9.9
2016-Feb-05 22:11N 41°06' W 073°05'710.9
2016-Feb-05 21:33N 41°03' W 073°13'1111.3
2016-Feb-05 20:33N 40°59' W 073°27'1211.8
2016-Feb-05 19:33N 40°54' W 073°41'1110.0
2016-Feb-05 18:29N 40°48' W 073°53'8 8.5
2016-Feb-05 17:33N 40°42' W 074°00'9 9.0
2016-Feb-05 16:34N 40°39' W 074°11'3 0.3
2016-Feb-05 06:28N 40°36' W 074°12'5 5.5
2016-Feb-05 05:33N 40°39' W 074°07'0 0.0
2016-Feb-05 04:33N 40°39' W 074°07'0 0.0
2016-Feb-05 03:34N 40°39' W 074°07'0 0.0
2016-Feb-05 02:34N 40°39' W 074°07'0 0.0
2016-Feb-05 01:33N 40°39' W 074°07'0 0.0
2016-Feb-05 00:33N 40°39' W 074°07'1 1.0
2016-Feb-04 23:34N 40°38' W 074°08'0 0.0
2016-Feb-04 22:31N 40°38' W 074°08'0 0.0
2016-Feb-04 21:33N 40°38' W 074°08'0 0.0
2016-Feb-04 20:33N 40°38' W 074°08'0 0.0
2016-Feb-04 19:34N 40°38' W 074°08'0 0.0
2016-Feb-04 18:34N 40°38' W 074°08'0 0.0
2016-Feb-04 17:34N 40°38' W 074°08'0 0.0
2016-Feb-04 16:33N 40°38' W 074°08'0 0.0
2016-Feb-04 15:33N 40°38' W 074°08'0 0.0
2016-Feb-04 14:34N 40°38' W 074°08'0 0.0
2016-Feb-04 13:34N 40°38' W 074°08'0 0.0
2016-Feb-04 12:34N 40°38' W 074°08'5 1.9
2016-Feb-04 10:07N 40°35' W 074°12'4 7.4
2016-Feb-04 09:34N 40°39' W 074°09'5 4.7
2016-Feb-04 08:33N 40°39' W 074°03'0 0.1
2016-Feb-04 07:33N 40°39' W 074°03'0 0.0
2016-Feb-04 06:33N 40°39' W 074°03'0 0.2
2016-Feb-04 05:33N 40°38' W 074°03'0 0.0
2016-Feb-04 04:33N 40°38' W 074°03'0 0.0
2016-Feb-04 03:34N 40°38' W 074°03'0 0.1
2016-Feb-04 02:34N 40°38' W 074°03'0 0.2
2016-Feb-04 01:34N 40°39' W 074°03'0 0.2
2016-Feb-04 00:33N 40°38' W 074°03'2 2.1
2016-Feb-03 23:34N 40°40' W 074°02'1010.0
2016-Feb-03 22:31N 40°48' W 073°53'12 9.9
2016-Feb-03 21:20N 40°55' W 073°40'911.4
2016-Feb-03 20:33N 40°59' W 073°29'1111.2
2016-Feb-03 19:33N 41°03' W 073°16'1110.9
2016-Feb-03 18:33N 41°07' W 073°02'9 0.4
2016-Feb-02 22:33N 41°12' W 072°53'0 0.5
2016-Feb-02 21:33N 41°12' W 072°52'0 0.0
2016-Feb-02 20:33N 41°12' W 072°52'0 0.1
2016-Feb-02 19:33N 41°12' W 072°52'0 0.0
2016-Feb-02 12:27N 41°12' W 072°52'0 0.1
2016-Feb-02 11:15N 41°12' W 072°52'0 0.2
2016-Feb-02 10:33N 41°12' W 072°52'0 0.0
2016-Feb-02 09:27N 41°12' W 072°52'0 0.0
2016-Feb-02 08:27N 41°12' W 072°52'0 0.0
2016-Feb-02 07:33N 41°12' W 072°52'0 0.0
2016-Feb-02 06:33N 41°12' W 072°52'0 0.1
2016-Feb-02 05:33N 41°12' W 072°52'0 0.1
2016-Feb-02 03:33N 41°12' W 072°52'0 0.0
2016-Feb-02 02:33N 41°12' W 072°52'0 0.1
2016-Feb-02 01:21N 41°12' W 072°52'18 8.9
2016-Feb-01 23:18N 41°03' W 073°13'911.4
2016-Feb-01 22:33N 41°00' W 073°24'2410.7
2016-Feb-01 20:21N 40°48' W 073°51'7 9.1
2016-Feb-01 19:34N 40°44' W 073°58'7 6.6
2016-Feb-01 18:34N 40°38' W 074°04'0 0.2
2016-Feb-01 17:34N 40°38' W 074°04'4 4.0
2016-Feb-01 16:33N 40°39' W 074°09'5 4.2
2016-Feb-01 15:29N 40°35' W 074°13'0 0.0
2016-Jan-31 19:18N 40°35' W 074°13'1 0.1
2016-Jan-31 07:26N 40°36' W 074°12'5 5.7
2016-Jan-31 06:33N 40°39' W 074°07'4 4.1
2016-Jan-31 05:32N 40°40' W 074°02'0 0.0
2016-Jan-31 04:32N 40°40' W 074°02'0 0.0
2016-Jan-31 03:32N 40°40' W 074°02'0 0.1
2016-Jan-31 02:32N 40°40' W 074°02'0 0.2
2016-Jan-31 01:32N 40°40' W 074°02'0 0.1
2016-Jan-31 00:32N 40°40' W 074°02'0 0.0
2016-Jan-30 23:32N 40°40' W 074°02'0 0.0
2016-Jan-30 22:32N 40°40' W 074°02'0 0.0
2016-Jan-30 21:32N 40°40' W 074°02'0 0.2
2016-Jan-30 20:32N 40°40' W 074°02'0 0.1
2016-Jan-30 19:32N 40°40' W 074°02'0 0.0
2016-Jan-30 18:32N 40°40' W 074°02'0 0.0
2016-Jan-30 17:32N 40°40' W 074°02'0 0.0
2016-Jan-30 16:32N 40°40' W 074°02'0 0.0
2016-Jan-30 15:32N 40°40' W 074°02'0 0.1
2016-Jan-30 14:32N 40°40' W 074°02'0 0.1
2016-Jan-30 13:32N 40°40' W 074°02'0 0.0
2016-Jan-30 12:32N 40°40' W 074°02'0 0.0
2016-Jan-30 11:32N 40°40' W 074°02'0 0.0
2016-Jan-30 10:32N 40°40' W 074°02'0 0.0
2016-Jan-30 09:32N 40°40' W 074°02'0 0.1
2016-Jan-30 08:34N 40°40' W 074°02'8 7.9
2016-Jan-30 07:33N 40°32' W 074°01'10 9.6
2016-Jan-30 06:33N 40°29' W 073°49'128 9.7
2016-Jan-29 17:28N 41°30' W 071°21'1011.2
2016-Jan-29 16:33N 41°40' W 071°19'8 7.9
2016-Jan-29 15:29N 41°48' W 071°24'0 0.0
2016-Jan-29 14:29N 41°48' W 071°24'0 0.0
2016-Jan-29 13:11N 41°48' W 071°24'0 0.0
2016-Jan-29 12:23N 41°48' W 071°24'0 0.0
2016-Jan-29 11:29N 41°48' W 071°24'0 0.0
2016-Jan-29 10:29N 41°48' W 071°24'0 0.0
2016-Jan-29 09:29N 41°48' W 071°24'0 0.0
2016-Jan-29 08:29N 41°48' W 071°24'0 0.0
2016-Jan-29 07:29N 41°48' W 071°24'0 0.0
2016-Jan-29 06:29N 41°48' W 071°24'0 0.0
2016-Jan-29 05:23N 41°48' W 071°24'0 0.0
2016-Jan-29 04:29N 41°48' W 071°24'0 0.0
2016-Jan-29 03:29N 41°48' W 071°24'0 0.0
2016-Jan-29 02:29N 41°48' W 071°24'0 0.0
2016-Jan-29 01:29N 41°48' W 071°24'0 0.0
2016-Jan-29 00:23N 41°48' W 071°24'0 0.0
2016-Jan-28 23:29N 41°48' W 071°24'0 0.0
2016-Jan-28 22:29N 41°48' W 071°24'0 0.0
2016-Jan-28 21:23N 41°48' W 071°24'4 4.7
2016-Jan-28 20:33N 41°44' W 071°22'8 8.3
2016-Jan-28 19:33N 41°37' W 071°18'1 0.5
2016-Jan-28 18:30N 41°36' W 071°18'0 0.1
2016-Jan-28 14:32N 41°36' W 071°18'0 0.0
2016-Jan-28 11:32N 41°36' W 071°18'0 0.1
2016-Jan-28 10:08N 41°36' W 071°18'0 0.2
2016-Jan-28 09:32N 41°36' W 071°18'0 0.0
2016-Jan-28 08:32N 41°36' W 071°18'0 0.0
2016-Jan-28 07:27N 41°36' W 071°18'0 0.0
2016-Jan-28 06:32N 41°36' W 071°18'0 0.0
2016-Jan-28 05:32N 41°36' W 071°18'0 0.0
2016-Jan-28 04:32N 41°36' W 071°18'0 0.1
2016-Jan-28 03:32N 41°36' W 071°18'0 0.3
2016-Jan-28 02:27N 41°36' W 071°18'7 7.5
2016-Jan-28 01:33N 41°43' W 071°20'5 4.5
2016-Jan-28 00:33N 41°39' W 071°18'1110.9
2016-Jan-27 23:33N 41°28' W 071°22'3510.8
2016-Jan-27 20:20N 41°14' W 072°05'1013.1
2016-Jan-27 19:33N 41°12' W 072°17'1211.8
2016-Jan-27 18:33N 41°09' W 072°33'1111.2
2016-Jan-27 17:33N 41°12' W 072°47'14 7.0
2016-Jan-27 15:31N 41°06' W 073°04'1010.7
2016-Jan-27 14:33N 41°02' W 073°17'1111.2
2016-Jan-27 13:33N 40°58' W 073°31'1211.4
2016-Jan-27 12:32N 40°52' W 073°44'10 9.8
2016-Jan-27 11:33N 40°47' W 073°55'7 7.1
2016-Jan-27 10:33N 40°41' W 074°00'6 5.6
2016-Jan-27 09:33N 40°41' W 074°08'1 0.7
2016-Jan-27 08:31N 40°42' W 074°08'0 0.0
2016-Jan-27 07:31N 40°42' W 074°08'0 0.0
2016-Jan-27 06:28N 40°42' W 074°08'0 0.0
2016-Jan-27 05:31N 40°42' W 074°08'0 0.0
2016-Jan-27 04:25N 40°42' W 074°08'0 0.0
2016-Jan-27 03:25N 40°42' W 074°08'0 0.0
2016-Jan-27 02:19N 40°42' W 074°08'0 0.0
2016-Jan-27 01:31N 40°42' W 074°08'0 0.0
2016-Jan-27 00:31N 40°42' W 074°08'0 0.0
2016-Jan-26 23:25N 40°42' W 074°08'  

Dump ship's entire track history